createdAt,value
2022-11-07T00:02:22.954Z,97580.31
2022-11-07T00:04:51.473Z,97583.00
2022-11-07T00:07:21.352Z,97581.44
2022-11-07T00:09:49.823Z,97582.19
2022-11-07T00:12:18.314Z,97585.56
2022-11-07T00:14:46.889Z,97591.47
2022-11-07T00:17:15.444Z,97592.38
2022-11-07T00:19:43.952Z,97593.91
2022-11-07T00:22:12.456Z,97587.25
2022-11-07T00:24:42.937Z,97602.59
2022-11-07T00:27:11.494Z,97588.97
2022-11-07T00:29:40.967Z,97604.66
2022-11-07T00:32:09.412Z,97608.84
2022-11-07T00:34:37.873Z,97612.25
2022-11-07T00:37:06.331Z,97625.88
2022-11-07T00:39:35.307Z,97624.22
2022-11-07T00:42:05.399Z,97617.50
2022-11-07T00:44:33.859Z,97620.06
2022-11-07T00:47:02.359Z,97625.00
2022-11-07T00:49:30.934Z,97630.06
2022-11-07T00:51:59.455Z,97635.97
2022-11-07T00:54:28.016Z,97636.38
2022-11-07T00:56:56.515Z,97631.09
2022-11-07T00:59:26.911Z,97631.38
2022-11-07T01:01:55.427Z,97633.31
2022-11-07T01:04:41.405Z,97627.53
2022-11-07T01:07:09.925Z,97636.75
2022-11-07T01:09:38.397Z,97632.72
2022-11-07T01:12:07.558Z,97640.44
2022-11-07T01:14:37.474Z,97639.66
2022-11-07T01:17:06.082Z,97634.72
2022-11-07T01:19:34.407Z,97642.69
2022-11-07T01:22:02.961Z,97631.78
2022-11-07T01:24:31.612Z,97642.31
2022-11-07T01:27:00.155Z,97641.56
2022-11-07T01:29:28.646Z,97649.19
2022-11-07T01:31:58.628Z,97656.06
2022-11-07T01:34:27.179Z,97653.75
2022-11-07T01:36:55.634Z,97652.75
2022-11-07T01:39:24.137Z,97646.06
2022-11-07T01:41:52.608Z,97650.34
2022-11-07T01:44:53.600Z,97648.16
2022-11-07T01:47:26.668Z,97635.31
2022-11-07T01:49:55.788Z,97638.88
2022-11-07T01:52:27.476Z,97641.78
2022-11-07T01:55:02.541Z,97632.69
2022-11-07T01:57:34.503Z,97630.31
2022-11-07T02:00:06.890Z,97628.59
2022-11-07T02:02:45.399Z,97630.56
2022-11-07T02:05:19.268Z,97629.19
2022-11-07T02:07:48.107Z,97638.00
2022-11-07T02:10:17.421Z,97633.13
2022-11-07T02:12:46.270Z,97643.38
2022-11-07T02:15:14.814Z,97632.34
2022-11-07T02:17:44.702Z,97629.88
2022-11-07T02:20:13.541Z,97626.38
2022-11-07T02:22:50.080Z,97626.91
2022-11-07T02:25:21.529Z,97620.31
2022-11-07T02:27:53.541Z,97638.56
2022-11-07T02:30:24.743Z,97631.31
2022-11-07T02:32:53.321Z,97633.34
2022-11-07T02:35:40.300Z,97639.38
2022-11-07T02:38:14.605Z,97626.63
2022-11-07T02:40:45.342Z,97628.94
2022-11-07T02:43:17.159Z,97630.75
2022-11-07T02:45:48.949Z,97623.94
2022-11-07T02:48:17.811Z,97630.53
2022-11-07T02:50:47.201Z,97627.97
2022-11-07T02:53:15.976Z,97632.06
2022-11-07T02:55:46.140Z,97635.38
2022-11-07T02:58:14.588Z,97636.00
2022-11-07T03:00:43.020Z,97635.94
2022-11-07T03:03:11.580Z,97629.69
2022-11-07T03:05:40.297Z,97633.91
2022-11-07T03:08:08.714Z,97635.50
2022-11-07T03:10:37.229Z,97637.81
2022-11-07T03:13:07.000Z,97632.00
2022-11-07T03:15:35.471Z,97626.81
2022-11-07T03:18:03.976Z,97625.88
2022-11-07T03:20:32.428Z,97628.53
2022-11-07T03:23:00.936Z,97632.00
2022-11-07T03:25:29.524Z,97631.94
2022-11-07T03:27:58.624Z,97635.13
2022-11-07T03:30:28.677Z,97635.00
2022-11-07T03:32:57.400Z,97631.53
2022-11-07T03:35:27.794Z,97631.88
2022-11-07T03:37:56.989Z,97630.84
2022-11-07T03:40:25.496Z,97634.44
2022-11-07T03:42:54.146Z,97633.59
2022-11-07T03:45:22.603Z,97640.41
2022-11-07T03:47:52.479Z,97631.19
2022-11-07T03:50:22.298Z,97641.09
2022-11-07T03:52:50.743Z,97633.41
2022-11-07T03:55:19.211Z,97649.66
2022-11-07T03:57:48.151Z,97642.84
2022-11-07T04:00:17.654Z,97638.47
2022-11-07T04:02:46.465Z,97644.19
2022-11-07T04:05:16.528Z,97642.47
2022-11-07T04:07:44.809Z,97638.78
2022-11-07T04:10:13.528Z,97639.56
2022-11-07T04:12:59.645Z,97647.31
2022-11-07T04:15:45.875Z,97644.81
2022-11-07T04:18:14.294Z,97650.00
2022-11-07T04:20:44.148Z,97655.78
2022-11-07T04:23:12.951Z,97660.09
2022-11-07T04:25:58.940Z,97653.03
2022-11-07T04:28:27.360Z,97664.06
2022-11-07T04:30:55.893Z,97664.91
2022-11-07T04:33:24.339Z,97665.75
2022-11-07T04:35:54.163Z,97674.19
2022-11-07T04:38:22.580Z,97668.94
2022-11-07T04:40:54.905Z,97672.25
2022-11-07T04:43:24.079Z,97678.31
2022-11-07T04:45:53.040Z,97674.91
2022-11-07T04:48:21.597Z,97680.81
2022-11-07T04:50:50.596Z,97680.47
2022-11-07T04:53:20.441Z,97670.00
2022-11-07T04:55:48.986Z,97667.38
2022-11-07T04:58:17.451Z,97671.47
2022-11-07T05:00:45.908Z,97673.91
2022-11-07T05:03:14.729Z,97676.53
2022-11-07T05:05:43.506Z,97684.44
2022-11-07T05:08:11.967Z,97679.50
2022-11-07T05:10:41.866Z,97679.50
2022-11-07T05:13:10.178Z,97672.63
2022-11-07T05:15:38.822Z,97675.06
2022-11-07T05:18:07.596Z,97682.19
2022-11-07T05:20:38.222Z,97676.28
2022-11-07T05:23:12.679Z,97685.91
2022-11-07T05:25:44.977Z,97685.97
2022-11-07T05:28:15.787Z,97691.09
2022-11-07T05:30:45.384Z,97692.09
2022-11-07T05:33:15.596Z,97681.66
2022-11-07T05:35:45.270Z,97683.28
2022-11-07T05:38:13.805Z,97678.91
2022-11-07T05:40:43.820Z,97695.28
2022-11-07T05:43:14.515Z,97690.06
2022-11-07T05:45:43.194Z,97687.50
2022-11-07T05:48:13.730Z,97691.56
2022-11-07T05:50:42.361Z,97682.81
2022-11-07T05:53:10.872Z,97699.03
2022-11-07T05:55:39.439Z,97691.41
2022-11-07T05:58:11.402Z,97691.50
2022-11-07T06:00:40.687Z,97695.59
2022-11-07T06:03:09.826Z,97688.84
2022-11-07T06:05:39.700Z,97703.41
2022-11-07T06:08:09.057Z,97708.69
2022-11-07T06:10:38.076Z,97709.47
2022-11-07T06:13:08.518Z,97702.59
2022-11-07T06:15:39.541Z,97706.81
2022-11-07T06:18:12.510Z,97704.94
2022-11-07T06:20:41.212Z,97705.63
2022-11-07T06:23:09.737Z,97714.88
2022-11-07T06:25:38.708Z,97713.91
2022-11-07T06:28:09.930Z,97718.09
2022-11-07T06:30:39.815Z,97723.22
2022-11-07T06:33:11.372Z,97711.84
2022-11-07T06:35:39.829Z,97715.94
2022-11-07T06:38:11.292Z,97714.22
2022-11-07T06:40:41.182Z,97709.00
2022-11-07T06:43:11.436Z,97717.41
2022-11-07T06:45:42.406Z,97710.38
2022-11-07T06:48:11.852Z,97711.91
2022-11-07T06:50:40.743Z,97716.78
2022-11-07T06:53:11.748Z,97714.22
2022-11-07T06:55:40.883Z,97720.97
2022-11-07T06:58:09.548Z,97726.94
2022-11-07T07:00:38.492Z,97725.13
2022-11-07T07:03:08.600Z,97722.56
2022-11-07T07:05:37.167Z,97732.69
2022-11-07T07:08:07.440Z,97729.34
2022-11-07T07:10:39.139Z,97727.56
2022-11-07T07:13:07.619Z,97722.38
2022-11-07T07:15:49.842Z,97725.66
2022-11-07T07:18:21.527Z,97732.66
2022-11-07T07:20:51.354Z,97737.78
2022-11-07T07:23:21.521Z,97736.81
2022-11-07T07:25:50.269Z,97743.66
2022-11-07T07:28:18.647Z,97746.00
2022-11-07T07:30:51.666Z,97749.28
2022-11-07T07:33:22.106Z,97743.09
2022-11-07T07:35:50.539Z,97744.41
2022-11-07T07:38:19.058Z,97750.38
2022-11-07T07:40:47.482Z,97750.16
2022-11-07T07:43:16.173Z,97755.84
2022-11-07T07:45:44.943Z,97760.63
2022-11-07T07:48:13.430Z,97760.41
2022-11-07T07:50:43.245Z,97766.88
2022-11-07T07:53:11.537Z,97768.38
2022-11-07T07:55:39.978Z,97762.13
2022-11-07T07:58:08.423Z,97762.59
2022-11-07T08:00:37.262Z,97771.75
2022-11-07T08:03:08.071Z,97772.22
2022-11-07T08:05:37.777Z,97770.00
2022-11-07T08:08:09.067Z,97772.06
2022-11-07T08:10:42.494Z,97766.22
2022-11-07T08:13:11.753Z,97765.66
2022-11-07T08:15:40.211Z,97771.13
2022-11-07T08:18:08.646Z,97767.97
2022-11-07T08:20:37.115Z,97763.75
2022-11-07T08:23:12.978Z,97772.53
2022-11-07T08:25:44.636Z,97767.63
2022-11-07T08:28:13.078Z,97765.22
2022-11-07T08:30:41.516Z,97770.72
2022-11-07T08:33:10.220Z,97775.56
2022-11-07T08:35:42.432Z,97778.63
2022-11-07T08:38:12.707Z,97776.72
2022-11-07T08:40:41.048Z,97783.13
2022-11-07T08:43:09.519Z,97786.84
2022-11-07T08:45:37.967Z,97788.22
2022-11-07T08:48:07.015Z,97786.94
2022-11-07T08:50:35.459Z,97787.25
2022-11-07T08:53:03.959Z,97797.91
2022-11-07T08:55:33.831Z,97791.38
2022-11-07T08:58:02.876Z,97788.72
2022-11-07T09:00:32.024Z,97788.28
2022-11-07T09:05:51.023Z,97784.72
2022-11-07T09:08:19.855Z,97791.34
2022-11-07T09:10:49.691Z,97774.72
2022-11-07T09:13:20.546Z,97791.06
2022-11-07T09:15:51.380Z,97787.78
2022-11-07T09:18:20.733Z,97787.88
2022-11-07T09:20:49.203Z,97789.84
2022-11-07T09:23:17.901Z,97794.19
2022-11-07T09:25:47.316Z,97781.78
2022-11-07T09:28:17.158Z,97793.53
2022-11-07T09:30:45.633Z,97797.75
2022-11-07T09:33:14.444Z,97796.53
2022-11-07T09:35:43.101Z,97798.47
2022-11-07T09:38:11.682Z,97797.72
2022-11-07T09:40:46.196Z,97805.41
2022-11-07T09:43:35.377Z,97810.59
2022-11-07T09:46:11.552Z,97807.84
2022-11-07T09:48:45.052Z,97814.97
2022-11-07T09:51:18.328Z,97810.13
2022-11-07T09:53:53.339Z,97815.22
2022-11-07T09:56:22.423Z,97819.72
2022-11-07T09:58:54.389Z,97815.19
2022-11-07T10:01:23.631Z,97813.47
2022-11-07T10:04:22.851Z,97813.88
2022-11-07T10:06:46.334Z,97806.94
2022-11-07T10:09:21.573Z,97809.81
2022-11-07T10:12:01.216Z,97808.25
2022-11-07T10:14:40.900Z,97805.34
2022-11-07T10:17:18.919Z,97804.09
2022-11-07T10:20:02.143Z,97813.09
2022-11-07T10:22:41.533Z,97797.44
2022-11-07T10:25:21.027Z,97804.28
2022-11-07T10:27:56.028Z,97809.06
2022-11-07T10:30:25.937Z,97808.81
2022-11-07T10:33:02.316Z,97811.59
2022-11-07T10:35:33.979Z,97806.41
2022-11-07T10:38:17.894Z,97800.53
2022-11-07T10:40:47.785Z,97806.63
2022-11-07T10:43:26.569Z,97793.09
2022-11-07T10:45:57.718Z,97794.22
2022-11-07T10:48:29.445Z,97787.59
2022-11-07T10:51:00.050Z,97787.00
2022-11-07T10:53:28.728Z,97792.59
2022-11-07T10:55:57.622Z,97792.03
2022-11-07T10:58:29.095Z,97788.31
2022-11-07T11:01:02.502Z,97788.13
2022-11-07T11:03:43.642Z,97782.00
2022-11-07T11:06:20.749Z,97780.47
2022-11-07T11:08:51.302Z,97767.91
2022-11-07T11:11:28.998Z,97772.66
2022-11-07T11:14:06.168Z,97765.19
2022-11-07T11:16:39.873Z,97761.88
2022-11-07T11:19:19.829Z,97758.56
2022-11-07T11:21:50.481Z,97760.44
2022-11-07T11:24:32.289Z,97758.25
2022-11-07T11:27:04.260Z,97763.66
2022-11-07T11:29:39.779Z,97769.78
2022-11-07T11:32:17.661Z,97757.00
2022-11-07T11:34:54.761Z,97761.78
2022-11-07T11:37:27.203Z,97757.53
2022-11-07T11:40:08.595Z,97758.28
2022-11-07T11:42:46.720Z,97754.66
2022-11-07T11:45:18.696Z,97748.72
2022-11-07T11:47:56.790Z,97747.38
2022-11-07T11:50:32.802Z,97750.47
2022-11-07T11:53:01.576Z,97748.84
2022-11-07T11:55:36.561Z,97751.59
2022-11-07T11:58:16.336Z,97756.63
2022-11-07T12:00:52.474Z,97748.28
2022-11-07T12:03:45.090Z,97755.16
2022-11-07T12:06:17.948Z,97756.69
2022-11-07T12:09:07.458Z,97760.41
2022-11-07T12:11:46.515Z,97754.78
2022-11-07T12:14:58.057Z,97755.25
2022-11-07T12:17:35.157Z,97753.38
2022-11-07T12:20:17.982Z,97759.00
2022-11-07T12:22:59.550Z,97761.69
2022-11-07T12:25:33.844Z,97760.44
2022-11-07T12:28:15.599Z,97747.13
2022-11-07T12:30:56.332Z,97755.88
2022-11-07T12:33:33.518Z,97751.44
2022-11-07T12:36:11.564Z,97749.72
2022-11-07T12:39:07.832Z,97752.50
2022-11-07T12:41:47.927Z,97747.69
2022-11-07T12:44:27.041Z,97745.25
2022-11-07T12:46:58.885Z,97747.97
2022-11-07T12:49:49.625Z,97745.06
2022-11-07T12:52:30.633Z,97738.13
2022-11-07T12:55:02.161Z,97735.31
2022-11-07T12:57:34.272Z,97740.50
2022-11-07T13:00:07.053Z,97735.47
2022-11-07T13:02:48.045Z,97730.97
2022-11-07T13:05:32.136Z,97721.81
2022-11-07T13:08:10.302Z,97722.72
2022-11-07T13:10:49.703Z,97719.31
2022-11-07T13:13:22.761Z,97728.06
2022-11-07T13:16:14.567Z,97730.25
2022-11-07T13:21:09.345Z,97723.16
2022-11-07T13:23:40.333Z,97712.59
2022-11-07T13:26:32.383Z,97725.59
2022-11-07T13:28:58.782Z,97722.00
2022-11-07T13:31:36.362Z,97721.91
2022-11-07T13:34:25.049Z,97716.34
2022-11-07T13:37:01.759Z,97725.63
2022-11-07T13:39:31.857Z,97718.88
2022-11-07T13:42:01.656Z,97720.47
2022-11-07T13:44:34.824Z,97726.31
2022-11-07T13:47:06.804Z,97723.63
2022-11-07T13:49:44.229Z,97724.03
2022-11-07T13:52:20.779Z,97726.03
2022-11-07T13:54:54.824Z,97722.94
2022-11-07T13:57:28.240Z,97726.69
2022-11-07T14:00:01.369Z,97722.03
2022-11-07T14:02:32.538Z,97724.63
2022-11-07T14:05:19.239Z,97718.72
2022-11-07T14:07:49.720Z,97723.19
2022-11-07T14:10:25.709Z,97729.59
2022-11-07T14:12:59.093Z,97733.22
2022-11-07T14:15:27.765Z,97729.59
2022-11-07T14:17:56.337Z,97721.75
2022-11-07T14:20:25.046Z,97721.50
2022-11-07T14:22:56.486Z,97720.34
2022-11-07T14:25:29.158Z,97723.16
2022-11-07T14:27:58.902Z,97718.59
2022-11-07T14:30:30.720Z,97720.19
2022-11-07T14:33:01.038Z,97716.41
2022-11-07T14:35:31.741Z,97720.25
2022-11-07T14:38:00.872Z,97721.19
2022-11-07T14:40:30.858Z,97730.00
2022-11-07T14:42:59.560Z,97730.22
2022-11-07T14:46:04.566Z,97731.06
2022-11-07T14:48:20.191Z,97735.53
2022-11-07T14:50:49.136Z,97735.59
2022-11-07T14:53:24.550Z,97729.00
2022-11-07T14:55:57.064Z,97728.28
2022-11-07T14:58:28.576Z,97732.81
2022-11-07T15:00:59.780Z,97735.63
2022-11-07T15:03:32.924Z,97725.25
2022-11-07T15:06:03.374Z,97723.91
2022-11-07T15:08:33.662Z,97719.47
2022-11-07T15:11:06.807Z,97719.94
2022-11-07T15:13:36.220Z,97725.59
2022-11-07T15:16:07.728Z,97720.38
2022-11-07T15:18:40.500Z,97726.91
2022-11-07T15:21:12.781Z,97723.19
2022-11-07T15:23:41.328Z,97726.28
2022-11-07T15:26:14.081Z,97725.22
2022-11-07T15:28:48.161Z,97729.22
2022-11-07T15:31:21.340Z,97726.41
2022-11-07T15:33:49.995Z,97724.97
2022-11-07T15:36:18.497Z,97726.28
2022-11-07T15:38:48.070Z,97727.59
2022-11-07T15:41:17.895Z,97732.41
2022-11-07T15:43:46.593Z,97730.31
2022-11-07T15:46:23.187Z,97731.66
2022-11-07T15:48:51.753Z,97723.31
2022-11-07T15:51:20.296Z,97725.31
2022-11-07T15:53:48.805Z,97733.09
2022-11-07T15:56:22.441Z,97729.88
2022-11-07T15:58:51.676Z,97735.78
2022-11-07T16:01:20.165Z,97728.03
2022-11-07T16:03:48.716Z,97730.47
2022-11-07T16:06:22.057Z,97735.38
2022-11-07T16:08:50.547Z,97735.16
2022-11-07T16:11:20.326Z,97737.09
2022-11-07T16:13:50.905Z,97735.69
2022-11-07T16:16:22.090Z,97734.47
2022-11-07T16:18:53.141Z,97737.56
2022-11-07T16:21:22.059Z,97743.63
2022-11-07T16:23:50.561Z,97735.56
2022-11-07T16:26:27.208Z,97731.44
2022-11-07T16:28:55.665Z,97737.84
2022-11-07T16:31:24.196Z,97728.94
2022-11-07T16:33:53.644Z,97734.31
2022-11-07T16:36:25.221Z,97731.91
2022-11-07T16:38:53.965Z,97722.91
2022-11-07T16:41:24.289Z,97725.28
2022-11-07T16:43:52.736Z,97723.03
2022-11-07T16:46:22.880Z,97732.50
2022-11-07T16:48:54.161Z,97733.09
2022-11-07T16:51:23.684Z,97740.56
2022-11-07T16:53:52.094Z,97739.22
2022-11-07T16:56:27.120Z,97737.34
2022-11-07T16:58:55.791Z,97729.84
2022-11-07T17:01:25.539Z,97734.56
2022-11-07T17:03:54.851Z,97738.31
2022-11-07T17:06:28.723Z,97731.72
2022-11-07T17:09:05.869Z,97731.88
2022-11-07T17:11:38.771Z,97743.50
2022-11-07T17:14:07.212Z,97743.84
2022-11-07T17:16:36.769Z,97747.03
2022-11-07T17:19:06.603Z,97749.94
2022-11-07T17:21:37.768Z,97741.81
2022-11-07T17:24:07.518Z,97750.69
2022-11-07T17:26:37.633Z,97748.34
2022-11-07T17:29:09.554Z,97746.50
2022-11-07T17:31:37.988Z,97754.59
2022-11-07T17:34:06.453Z,97749.19
2022-11-07T17:36:38.193Z,97746.56
2022-11-07T17:39:10.977Z,97745.81
2022-11-07T17:41:40.256Z,97752.53
2022-11-07T17:44:10.869Z,97747.19
2022-11-07T17:46:42.839Z,97753.63
2022-11-07T17:49:14.800Z,97756.69
2022-11-07T17:51:44.019Z,97752.34
2022-11-07T17:54:13.821Z,97752.34
2022-11-07T17:56:42.618Z,97752.28
2022-11-07T17:59:14.313Z,97750.41
2022-11-07T18:01:43.861Z,97752.50
2022-11-07T18:04:14.247Z,97748.13
2022-11-07T18:06:43.998Z,97750.69
2022-11-07T18:09:15.929Z,97747.44
2022-11-07T18:11:45.350Z,97749.00
2022-11-07T18:14:15.539Z,97748.25
2022-11-07T18:16:44.052Z,97752.03
2022-11-07T18:19:12.532Z,97749.59
2022-11-07T18:21:41.090Z,97750.34
2022-11-07T18:24:10.048Z,97753.94
2022-11-07T18:26:38.773Z,97748.88
2022-11-07T18:29:09.341Z,97755.19
2022-11-07T18:31:40.382Z,97751.78
2022-11-07T18:34:12.032Z,97744.28
2022-11-07T18:36:42.210Z,97746.09
2022-11-07T18:39:14.770Z,97743.75
2022-11-07T18:41:43.960Z,97752.34
2022-11-07T18:44:13.261Z,97742.59
2022-11-07T18:46:44.067Z,97740.97
2022-11-07T18:49:14.651Z,97741.25
2022-11-07T18:51:44.004Z,97747.59
2022-11-07T18:54:13.654Z,97741.69
2022-11-07T18:56:43.350Z,97745.09
2022-11-07T18:59:12.484Z,97735.22
2022-11-07T19:01:41.336Z,97733.72
2022-11-07T19:04:12.448Z,97733.78
2022-11-07T19:06:55.738Z,97734.91
2022-11-07T19:09:26.433Z,97729.00
2022-11-07T19:11:55.118Z,97724.91
2022-11-07T19:14:23.809Z,97720.69
2022-11-07T19:16:52.289Z,97728.75
2022-11-07T19:19:22.590Z,97730.56
2022-11-07T19:21:51.202Z,97733.38
2022-11-07T19:24:19.859Z,97732.75
2022-11-07T19:26:48.594Z,97728.59
2022-11-07T19:29:18.112Z,97732.13
2022-11-07T19:31:46.740Z,97736.84
2022-11-07T19:34:16.867Z,97732.59
2022-11-07T19:36:46.815Z,97739.22
2022-11-07T19:39:15.431Z,97743.59
2022-11-07T19:41:43.973Z,97742.06
2022-11-07T19:44:12.560Z,97749.03
2022-11-07T19:46:41.134Z,97738.91
2022-11-07T19:49:09.729Z,97739.09
2022-11-07T19:51:38.276Z,97742.69
2022-11-07T19:54:08.658Z,97747.19
2022-11-07T19:56:37.478Z,97746.53
2022-11-07T19:59:06.105Z,97743.09
2022-11-07T20:01:35.779Z,97745.53
2022-11-07T20:04:04.620Z,97749.00
2022-11-07T20:06:36.416Z,97748.03
2022-11-07T20:09:06.447Z,97750.47
2022-11-07T20:11:36.774Z,97753.03
2022-11-07T20:14:05.358Z,97749.06
2022-11-07T20:16:35.022Z,97744.81
2022-11-07T20:19:03.997Z,97751.75
2022-11-07T20:21:33.767Z,97750.28
2022-11-07T20:24:02.451Z,97748.41
2022-11-07T20:26:34.480Z,97745.78
2022-11-07T20:29:04.944Z,97744.13
2022-11-07T20:31:36.704Z,97758.63
2022-11-07T20:34:07.127Z,97754.00
2022-11-07T20:36:36.001Z,97759.13
2022-11-07T20:39:05.139Z,97761.91
2022-11-07T20:41:34.100Z,97757.72
2022-11-07T20:44:06.175Z,97759.50
2022-11-07T20:46:37.669Z,97764.59
2022-11-07T20:49:08.896Z,97763.81
2022-11-07T20:51:37.667Z,97764.13
2022-11-07T20:54:06.383Z,97764.38
2022-11-07T20:56:35.386Z,97763.06
2022-11-07T20:59:05.174Z,97765.84
2022-11-07T21:01:36.251Z,97772.81
2022-11-07T21:04:06.455Z,97775.50
2022-11-07T21:06:36.371Z,97769.53
2022-11-07T21:09:06.604Z,97774.66
2022-11-07T21:11:35.837Z,97769.66
2022-11-07T21:14:06.049Z,97768.94
2022-11-07T21:16:35.907Z,97772.41
2022-11-07T21:19:05.725Z,97769.38
2022-11-07T21:21:34.688Z,97772.03
2022-11-07T21:24:03.923Z,97773.97
2022-11-07T21:26:35.396Z,97778.63
2022-11-07T21:29:06.840Z,97777.59
2022-11-07T21:31:36.598Z,97775.97
2022-11-07T21:34:07.051Z,97774.44
2022-11-07T21:36:36.063Z,97776.28
2022-11-07T21:39:05.101Z,97776.13
2022-11-07T21:41:33.944Z,97783.81
2022-11-07T21:44:02.577Z,97775.28
2022-11-07T21:46:34.356Z,97779.50
2022-11-07T21:49:04.872Z,97778.06
2022-11-07T21:51:34.745Z,97770.47
2022-11-07T21:54:04.588Z,97774.19
2022-11-07T21:56:34.682Z,97773.34
2022-11-07T21:59:07.505Z,97767.50
2022-11-07T22:01:38.936Z,97769.22
2022-11-07T22:04:11.117Z,97759.94
2022-11-07T22:06:43.012Z,97758.31
2022-11-07T22:09:14.210Z,97759.03
2022-11-07T22:11:42.976Z,97758.81
2022-11-07T22:14:14.553Z,97756.88
2022-11-07T22:16:44.489Z,97758.56
2022-11-07T22:19:13.288Z,97760.97
2022-11-07T22:21:42.483Z,97763.47
2022-11-07T22:24:11.576Z,97755.88
2022-11-07T22:26:40.506Z,97750.72
2022-11-07T22:29:08.999Z,97751.44
2022-11-07T22:31:37.532Z,97748.09
2022-11-07T22:34:07.437Z,97738.53
2022-11-07T22:36:35.884Z,97737.53
2022-11-07T22:39:05.016Z,97736.63
2022-11-07T22:41:33.426Z,97731.47
2022-11-07T22:44:01.908Z,97734.91
2022-11-07T22:46:31.784Z,97730.47
2022-11-07T22:49:00.816Z,97721.25
2022-11-07T22:51:32.651Z,97720.38
2022-11-07T22:54:03.037Z,97719.66
2022-11-07T22:56:32.026Z,97712.03
2022-11-07T22:59:00.773Z,97712.03
2022-11-07T23:01:31.556Z,97712.28
2022-11-07T23:04:00.334Z,97712.06
2022-11-07T23:06:30.901Z,97718.97
2022-11-07T23:09:00.694Z,97714.00
2022-11-07T23:11:48.684Z,97706.47
2022-11-07T23:14:19.454Z,97708.44
2022-11-07T23:16:49.665Z,97700.09
2022-11-07T23:19:20.515Z,97704.44
2022-11-07T23:21:50.807Z,97705.16
2022-11-07T23:24:20.436Z,97699.38
2022-11-07T23:26:49.285Z,97709.88
2022-11-07T23:29:20.635Z,97700.31
2022-11-07T23:31:50.804Z,97709.72
2022-11-07T23:34:20.107Z,97712.53
2022-11-07T23:36:52.657Z,97702.34
2022-11-07T23:39:22.967Z,97704.06
2022-11-07T23:41:51.527Z,97708.25
2022-11-07T23:44:20.015Z,97702.19
2022-11-07T23:47:05.882Z,97709.94
2022-11-07T23:49:51.059Z,97709.94
2022-11-07T23:52:20.940Z,97705.75
2022-11-07T23:55:06.947Z,97703.19
2022-11-07T23:57:56.256Z,97697.44
